createdAt,value
2023-05-14T00:04:06.080Z,9.22
2023-05-14T00:09:07.747Z,9.26
2023-05-14T00:14:09.451Z,9.20
2023-05-14T00:19:12.452Z,9.36
2023-05-14T00:24:14.203Z,9.20
2023-05-14T00:29:15.791Z,9.24
2023-05-14T00:34:18.846Z,9.17
2023-05-14T00:39:21.512Z,9.22
2023-05-14T00:44:23.091Z,9.07
2023-05-14T00:49:28.107Z,9.25
2023-05-14T00:54:30.573Z,9.22
2023-05-14T00:59:33.819Z,9.14
2023-05-14T01:04:37.266Z,9.20
2023-05-14T01:09:44.981Z,9.21
2023-05-14T01:15:07.994Z,9.14
2023-05-14T01:20:11.912Z,9.12
2023-05-14T01:25:14.906Z,9.11
2023-05-14T01:30:25.716Z,9.19
2023-05-14T01:35:29.812Z,9.12
2023-05-14T01:40:33.384Z,9.31
2023-05-14T01:45:36.495Z,9.62
2023-05-14T01:50:38.194Z,9.57
2023-05-14T01:55:42.160Z,9.69
2023-05-14T02:00:43.870Z,9.74
2023-05-14T02:05:45.524Z,9.67
2023-05-14T02:10:48.662Z,9.68
2023-05-14T02:15:52.366Z,9.59
2023-05-14T02:20:55.198Z,9.59
2023-05-14T02:25:58.143Z,9.69
2023-05-14T02:30:59.853Z,9.74
2023-05-14T02:36:04.011Z,9.40
2023-05-14T02:41:08.503Z,9.34
2023-05-14T02:46:10.058Z,9.28
2023-05-14T02:51:12.898Z,9.29
2023-05-14T02:56:15.935Z,9.44
2023-05-14T03:01:17.775Z,9.12
2023-05-14T03:06:21.874Z,8.96
2023-05-14T03:11:25.159Z,9.03
2023-05-14T03:16:27.062Z,9.15
2023-05-14T03:21:28.853Z,9.01
2023-05-14T03:26:31.950Z,8.94
2023-05-14T03:31:33.577Z,8.88
2023-05-14T03:36:35.358Z,8.79
2023-05-14T03:41:40.388Z,8.95
2023-05-14T03:52:07.732Z,8.70
2023-05-14T03:57:13.128Z,8.75
2023-05-14T04:02:17.599Z,8.57
2023-05-14T04:07:19.317Z,8.70
2023-05-14T04:12:25.659Z,8.52
2023-05-14T04:17:27.273Z,8.65
2023-05-14T04:22:28.960Z,8.64
2023-05-14T04:27:32.978Z,8.60
2023-05-14T04:32:36.866Z,8.68
2023-05-14T04:37:38.645Z,8.87
2023-05-14T04:42:41.639Z,8.76
2023-05-14T04:47:43.387Z,8.97
2023-05-14T04:52:45.062Z,8.81
2023-05-14T04:57:48.055Z,8.70
2023-05-14T05:02:51.784Z,8.59
2023-05-14T05:07:56.127Z,8.65
2023-05-14T05:12:59.100Z,8.68
2023-05-14T05:18:03.175Z,8.57
2023-05-14T05:23:04.971Z,8.59
2023-05-14T05:28:10.295Z,8.58
2023-05-14T05:33:12.271Z,8.53
2023-05-14T05:38:14.096Z,8.65
2023-05-14T05:43:17.084Z,8.81
2023-05-14T05:48:18.726Z,8.87
2023-05-14T05:53:20.373Z,8.77
2023-05-14T05:58:23.433Z,9.01
2023-05-14T06:03:25.301Z,8.99
2023-05-14T06:08:27.938Z,9.20
2023-05-14T06:13:30.919Z,9.32
2023-05-14T06:18:32.620Z,9.35
2023-05-14T06:23:34.212Z,9.18
2023-05-14T06:28:37.283Z,9.24
2023-05-14T06:33:38.982Z,9.31
2023-05-14T06:38:40.581Z,9.55
2023-05-14T06:43:58.395Z,9.34
2023-05-14T06:49:00.071Z,9.39
2023-05-14T06:54:03.748Z,9.92
2023-05-14T06:59:06.846Z,9.57
2023-05-14T07:04:08.605Z,9.35
2023-05-14T07:09:10.324Z,9.48
2023-05-14T07:14:13.407Z,9.62
2023-05-14T07:19:17.365Z,9.69
2023-05-14T07:24:21.658Z,9.85
2023-05-14T07:29:33.428Z,9.67
2023-05-14T07:34:35.218Z,9.68
2023-05-14T07:39:36.870Z,9.85
2023-05-14T07:44:39.860Z,9.70
2023-05-14T07:49:41.498Z,10.12
2023-05-14T07:54:43.188Z,10.38
2023-05-14T07:59:55.036Z,10.35
2023-05-14T08:04:56.776Z,10.11
2023-05-14T08:09:58.437Z,9.92
2023-05-14T08:15:06.627Z,10.11
2023-05-14T08:20:11.396Z,10.61
2023-05-14T08:25:13.260Z,10.72
2023-05-14T08:30:16.762Z,10.38
2023-05-14T08:35:19.790Z,10.26
2023-05-14T08:40:22.000Z,10.85
2023-05-14T08:45:30.962Z,10.60
2023-05-14T08:50:32.814Z,10.37
2023-05-14T08:55:35.715Z,10.06
2023-05-14T09:00:41.216Z,10.58
2023-05-14T09:05:44.167Z,9.69
2023-05-14T09:10:48.093Z,9.69
2023-05-14T09:15:51.823Z,10.12
2023-05-14T09:20:53.501Z,9.97
2023-05-14T09:25:55.175Z,10.16
2023-05-14T09:30:58.193Z,10.23
2023-05-14T09:36:00.411Z,10.40
2023-05-14T09:41:02.050Z,10.87
2023-05-14T09:46:07.564Z,11.62
2023-05-14T09:51:10.076Z,10.59
2023-05-14T09:56:11.736Z,10.97
2023-05-14T10:01:17.624Z,11.28
2023-05-14T10:06:25.804Z,11.22
2023-05-14T10:11:31.805Z,11.03
2023-05-14T10:16:43.615Z,11.34
2023-05-14T10:21:50.667Z,12.33
2023-05-14T10:26:52.692Z,11.46
2023-05-14T10:32:03.101Z,11.56
2023-05-14T10:37:07.150Z,11.72
2023-05-14T10:42:10.802Z,12.52
2023-05-14T10:47:20.492Z,12.28
2023-05-14T10:52:25.278Z,12.61
2023-05-14T10:57:31.776Z,12.96
2023-05-14T11:02:36.399Z,12.69
2023-05-14T11:07:39.882Z,12.96
2023-05-14T11:12:43.166Z,13.39
2023-05-14T11:17:49.333Z,14.28
2023-05-14T11:22:51.083Z,14.35
2023-05-14T11:27:52.913Z,14.24
2023-05-14T11:32:56.263Z,12.93
2023-05-14T11:38:00.357Z,12.34
2023-05-14T11:43:02.082Z,12.51
2023-05-14T11:48:20.066Z,12.13
2023-05-14T11:53:30.273Z,12.47
2023-05-14T11:58:33.184Z,12.57
2023-05-14T12:03:36.663Z,12.62
2023-05-14T12:08:38.812Z,13.87
2023-05-14T12:13:40.489Z,14.32
2023-05-14T12:18:43.610Z,13.71
2023-05-14T12:23:45.307Z,14.05
2023-05-14T12:28:47.866Z,13.09
2023-05-14T12:33:58.917Z,13.08
2023-05-14T12:39:02.289Z,12.97
2023-05-14T12:44:06.016Z,13.19
2023-05-14T12:49:11.232Z,12.42
2023-05-14T12:54:12.931Z,12.75
2023-05-14T12:59:14.465Z,13.09
2023-05-14T13:04:17.569Z,12.89
2023-05-14T13:09:19.191Z,13.20
2023-05-14T13:14:22.170Z,12.76
2023-05-14T13:19:25.177Z,12.21
2023-05-14T13:24:26.843Z,11.29
2023-05-14T13:29:28.456Z,11.30
2023-05-14T13:34:31.466Z,11.57
2023-05-14T13:39:33.117Z,11.53
2023-05-14T13:44:34.706Z,11.78
2023-05-14T13:49:37.733Z,12.25
2023-05-14T13:54:39.413Z,12.24
2023-05-14T13:59:41.158Z,12.14
2023-05-14T14:04:44.227Z,11.38
2023-05-14T14:09:46.896Z,11.27
2023-05-14T14:14:48.435Z,10.95
2023-05-14T14:19:53.825Z,11.04
2023-05-14T14:24:55.418Z,11.24
2023-05-14T14:29:57.021Z,11.13
2023-05-14T14:35:02.286Z,12.08
2023-05-14T14:40:04.589Z,12.30
2023-05-14T14:45:09.297Z,12.87
2023-05-14T14:50:14.503Z,13.21
2023-05-14T14:55:16.063Z,13.27
2023-05-14T15:00:17.996Z,12.57
2023-05-14T15:05:21.050Z,12.51
2023-05-14T15:10:22.867Z,12.19
2023-05-14T15:15:26.351Z,11.57
2023-05-14T15:20:31.947Z,11.18
2023-05-14T15:25:36.039Z,10.66
2023-05-14T15:30:40.000Z,10.69
2023-05-14T15:35:45.517Z,11.03
2023-05-14T15:40:47.237Z,11.86
2023-05-14T15:45:48.836Z,12.25
2023-05-14T15:50:54.276Z,12.37
2023-05-14T15:56:01.031Z,12.33
2023-05-14T16:07:09.659Z,12.71
2023-05-14T16:12:11.504Z,13.20
2023-05-14T16:17:13.116Z,13.45
2023-05-14T16:22:16.188Z,13.31
2023-05-14T16:27:17.882Z,13.07
2023-05-14T16:32:20.521Z,12.88
2023-05-14T16:37:23.652Z,13.13
2023-05-14T16:42:27.452Z,13.02
2023-05-14T16:47:29.216Z,13.01
2023-05-14T16:52:36.008Z,13.04
2023-05-14T16:57:37.670Z,12.83
2023-05-14T17:02:39.403Z,13.22
2023-05-14T17:13:02.293Z,13.06
2023-05-14T17:18:05.538Z,13.04
2023-05-14T17:23:10.849Z,12.99
2023-05-14T17:28:13.800Z,13.21
2023-05-14T17:33:15.621Z,12.80
2023-05-14T17:38:18.622Z,12.83
2023-05-14T17:43:20.271Z,12.54
2023-05-14T17:48:22.127Z,12.54
2023-05-14T17:53:25.107Z,12.08
2023-05-14T17:58:26.914Z,12.11
2023-05-14T18:03:28.626Z,12.32
2023-05-14T18:08:31.701Z,12.77
2023-05-14T18:13:33.417Z,12.97
2023-05-14T18:18:36.195Z,13.10
2023-05-14T18:23:39.261Z,12.84
2023-05-14T18:28:40.972Z,12.71
2023-05-14T18:33:42.710Z,12.63
2023-05-14T18:38:45.659Z,12.86
2023-05-14T18:43:47.587Z,12.78
2023-05-14T18:49:01.558Z,12.84
2023-05-14T18:54:07.036Z,12.73
2023-05-14T18:59:08.745Z,12.45
2023-05-14T19:04:10.427Z,12.61
2023-05-14T19:09:13.552Z,12.58
2023-05-14T19:14:15.203Z,12.48
2023-05-14T19:19:17.016Z,12.52
2023-05-14T19:24:25.214Z,12.25
2023-05-14T19:29:28.892Z,12.30
2023-05-14T19:34:30.457Z,12.30
2023-05-14T19:39:33.470Z,12.35
2023-05-14T19:44:35.063Z,12.18
2023-05-14T19:49:36.716Z,12.07
2023-05-14T19:54:42.108Z,11.56
2023-05-14T19:59:43.782Z,11.21
2023-05-14T20:04:54.011Z,11.25
2023-05-14T20:09:59.473Z,11.43
2023-05-14T20:15:03.075Z,11.27
2023-05-14T20:20:06.166Z,11.29
2023-05-14T20:25:09.781Z,11.29
2023-05-14T20:30:12.105Z,11.32
2023-05-14T20:35:13.707Z,11.17
2023-05-14T20:40:16.861Z,10.91
2023-05-14T20:51:23.537Z,10.42
2023-05-14T20:56:29.081Z,10.57
2023-05-14T21:01:30.712Z,10.36
2023-05-14T21:06:32.352Z,10.42
2023-05-14T21:17:41.232Z,10.46
2023-05-14T21:22:42.975Z,10.32
2023-05-14T21:27:44.689Z,10.26
2023-05-14T21:32:49.952Z,10.07
2023-05-14T21:37:51.750Z,10.11
2023-05-14T21:42:53.394Z,10.09
2023-05-14T21:47:56.457Z,10.13
2023-05-14T21:52:58.160Z,10.02
2023-05-14T21:58:56.100Z,10.15
2023-05-14T22:03:59.205Z,10.05
2023-05-14T22:09:00.794Z,10.02
2023-05-14T22:14:02.420Z,10.06
2023-05-14T22:19:06.640Z,10.22
2023-05-14T22:24:16.098Z,10.00
2023-05-14T22:29:17.752Z,10.06
2023-05-14T22:34:20.816Z,10.21
2023-05-14T22:39:23.514Z,10.08
2023-05-14T22:44:29.745Z,9.64
2023-05-14T22:49:35.836Z,9.60
2023-05-14T22:54:37.495Z,9.83
2023-05-14T22:59:41.193Z,9.66
2023-05-14T23:04:44.177Z,9.18
2023-05-14T23:09:45.767Z,9.21
2023-05-14T23:14:51.275Z,9.35
2023-05-14T23:20:01.734Z,9.53
2023-05-14T23:25:03.585Z,9.61
2023-05-14T23:30:06.217Z,9.68
2023-05-14T23:35:09.619Z,9.64
2023-05-14T23:40:11.593Z,9.93
2023-05-14T23:45:13.451Z,9.88
2023-05-14T23:55:32.213Z,9.96
